Time;durP1;ratioP1;P1;durP2;ratioP2;P2;SDS_P1;SDS_P2;PMS_P1;PMS_P2;Temp;Humidity;BMP_temperature;BMP_pressure;BME280_temperature;BME280_humidity;BME280_pressure;Samples;Min_cycle;Max_cycle;Signal;HPM_P1;HPM_P2
2022/06/29 00:02:44;;;;;;;4.53;3.90;;;;;17.20;101141.00;;;;4921851;28;20242;-67
2022/06/29 00:05:32;;;;;;;3.97;3.57;;;;;17.10;101147.00;;;;4925757;29;20724;-66
2022/06/29 00:08:18;;;;;;;4.20;3.87;;;;;17.10;101151.00;;;;4927993;29;20310;-66
2022/06/29 00:11:04;;;;;;;4.80;4.40;;;;;17.10;101146.00;;;;4927370;29;20318;-66
2022/06/29 00:13:51;;;;;;;7.17;4.73;;;;;17.20;101148.00;;;;4924198;29;20306;-67
2022/06/29 00:16:37;;;;;;;4.20;3.80;;;;;17.10;101128.00;;;;4928161;29;20234;-66
2022/06/29 00:19:23;;;;;;;4.20;3.80;;;;;17.10;101141.00;;;;4931414;29;20242;-69
2022/06/29 00:22:11;;;;;;;5.20;3.70;;;;;16.90;101136.00;;;;4928266;29;20348;-68
2022/06/29 00:24:57;;;;;;;4.20;3.60;;;;;16.80;101139.00;;;;4929253;29;20234;-67
2022/06/29 00:27:45;;;;;;;4.30;3.87;;;;;16.80;101125.00;;;;4925419;29;21133;-70
2022/06/29 00:30:32;;;;;;;4.27;3.87;;;;;16.80;101110.00;;;;4929331;29;20226;-69
2022/06/29 00:33:19;;;;;;;3.97;3.53;;;;;16.80;101132.00;;;;4929429;29;20325;-68
2022/06/29 00:36:05;;;;;;;4.10;3.70;;;;;16.80;101125.00;;;;4931691;29;20309;-68
2022/06/29 00:38:53;;;;;;;4.13;3.77;;;;;16.70;101128.00;;;;4929057;29;20294;-69
2022/06/29 00:41:40;;;;;;;3.83;3.53;;;;;16.70;101130.00;;;;4930903;28;20235;-67
2022/06/29 00:44:27;;;;;;;4.80;3.60;;;;;16.50;101118.00;;;;4920350;28;20601;-70
2022/06/29 00:47:13;;;;;;;4.17;3.77;;;;;16.50;101123.00;;;;4927664;28;20226;-65
2022/06/29 00:49:59;;;;;;;4.10;3.70;;;;;16.50;101121.00;;;;4924493;28;20232;-67
2022/06/29 00:55:52;;;;;;;4.03;3.70;;;;;16.40;101122.00;;;;5275290;23;20237;-66
2022/06/29 00:58:39;;;;;;;4.30;3.80;;;;;16.30;101120.00;;;;4941063;28;20238;-66
2022/06/29 01:01:26;;;;;;;5.53;3.90;;;;;16.40;101109.00;;;;4946296;28;20382;-66
2022/06/29 01:04:14;;;;;;;6.93;3.93;;;;;16.30;101110.00;;;;4944364;28;20234;-67
2022/06/29 01:07:01;;;;;;;3.83;3.53;;;;;16.20;101116.00;;;;4948013;28;20310;-68
2022/06/29 01:09:47;;;;;;;4.10;3.70;;;;;16.20;101115.00;;;;4943332;28;20231;-67
2022/06/29 01:12:35;;;;;;;3.90;3.57;;;;;16.20;101114.00;;;;4944112;28;20261;-66
2022/06/29 01:15:22;;;;;;;5.93;3.67;;;;;16.20;101115.00;;;;4945684;28;20237;-67
2022/06/29 01:18:09;;;;;;;3.97;3.63;;;;;16.20;101105.00;;;;4936923;28;20670;-67
2022/06/29 01:20:55;;;;;;;4.70;3.77;;;;;16.10;101106.00;;;;4945518;28;20799;-67
2022/06/29 01:23:43;;;;;;;4.10;3.70;;;;;16.20;101095.00;;;;4942228;28;20394;-67
2022/06/29 01:26:29;;;;;;;3.87;3.57;;;;;16.10;101100.00;;;;4948278;28;20244;-66
2022/06/29 01:29:16;;;;;;;4.67;4.20;;;;;16.00;101100.00;;;;4949079;28;20246;-68
2022/06/29 01:32:04;;;;;;;7.13;4.20;;;;;16.10;101091.00;;;;4948313;28;20245;-67
2022/06/29 01:34:52;;;;;;;3.97;3.60;;;;;16.10;101092.00;;;;4948559;28;20246;-66
2022/06/29 01:37:38;;;;;;;4.47;4.07;;;;;16.10;101088.00;;;;4946706;28;20239;-67
2022/06/29 01:40:26;;;;;;;4.13;3.73;;;;;16.20;101089.00;;;;4948598;28;20236;-67
2022/06/29 01:43:12;;;;;;;4.97;4.43;;;;;16.30;101087.00;;;;4943053;28;20240;-67
2022/06/29 01:45:58;;;;;;;7.23;4.40;;;;;16.30;101080.00;;;;4943844;28;20262;-67
2022/06/29 01:48:45;;;;;;;6.47;4.50;;;;;16.30;101077.00;;;;4946140;28;20723;-67
2022/06/29 01:51:31;;;;;;;4.87;4.00;;;;;16.30;101066.00;;;;4945215;28;20228;-67
2022/06/29 01:54:18;;;;;;;4.10;3.67;;;;;16.40;101066.00;;;;4946603;28;20326;-66
2022/06/29 01:57:06;;;;;;;4.43;4.03;;;;;16.30;101060.00;;;;4940794;28;20727;-65
2022/06/29 01:59:52;;;;;;;5.40;3.83;;;;;16.30;101063.00;;;;4938486;28;20896;-66
2022/06/29 02:02:39;;;;;;;4.87;4.40;;;;;16.30;101063.00;;;;4945289;28;20235;-66
2022/06/29 02:05:25;;;;;;;5.43;4.00;;;;;16.30;101061.00;;;;4944379;28;21008;-66
2022/06/29 02:08:12;;;;;;;4.30;3.90;;;;;16.30;101055.00;;;;4944365;28;20236;-64
2022/06/29 02:10:58;;;;;;;4.77;4.03;;;;;16.20;101051.00;;;;4940359;28;20225;-65
2022/06/29 02:13:46;;;;;;;4.07;3.77;;;;;16.30;101058.00;;;;4945884;28;20382;-66
2022/06/29 02:16:33;;;;;;;4.53;4.13;;;;;16.20;101053.00;;;;4947590;28;20292;-66
2022/06/29 02:19:19;;;;;;;4.83;4.30;;;;;16.30;101047.00;;;;4948667;28;20919;-66
2022/06/29 02:22:05;;;;;;;4.27;3.80;;;;;16.40;101045.00;;;;4947034;28;20245;-66
2022/06/29 02:24:52;;;;;;;4.30;3.90;;;;;16.30;101048.00;;;;4947127;28;20285;-66
2022/06/29 02:27:40;;;;;;;4.93;4.43;;;;;16.20;101039.00;;;;4940546;28;20230;-67
2022/06/29 02:36:32;;;;;;;5.33;4.47;;;;;16.20;101028.00;;;;4943107;28;20258;-65
2022/06/29 02:39:18;;;;;;;5.27;4.43;;;;;16.40;101036.00;;;;4937397;28;20230;-66
2022/06/29 02:42:04;;;;;;;6.10;4.80;;;;;16.30;101034.00;;;;4940223;28;20601;-66
2022/06/29 02:44:51;;;;;;;4.43;4.00;;;;;16.30;101034.00;;;;4942091;28;20240;-66
2022/06/29 02:47:38;;;;;;;4.93;4.40;;;;;16.20;101039.00;;;;4946537;28;20271;-67
2022/06/29 02:50:25;;;;;;;6.00;4.50;;;;;16.30;101038.00;;;;4944265;28;20370;-66
2022/06/29 02:53:11;;;;;;;5.53;4.13;;;;;16.30;101028.00;;;;4935070;28;20260;-68
2022/06/29 02:55:57;;;;;;;5.60;4.20;;;;;16.30;101023.00;;;;4941983;28;20735;-68
2022/06/29 02:58:44;;;;;;;6.17;4.67;;;;;16.20;101027.00;;;;4947195;28;20280;-67
2022/06/29 03:01:30;;;;;;;5.00;4.40;;;;;16.20;101030.00;;;;4944220;28;20275;-67
2022/06/29 03:04:18;;;;;;;4.77;4.23;;;;;16.30;101033.00;;;;4934930;28;20238;-67
2022/06/29 03:07:04;;;;;;;5.03;4.53;;;;;16.30;101024.00;;;;4940848;28;20292;-67
2022/06/29 03:09:50;;;;;;;5.77;4.73;;;;;16.30;101021.00;;;;4946554;28;20582;-67
2022/06/29 03:12:37;;;;;;;6.13;4.40;;;;;16.30;101021.00;;;;4942648;28;20819;-67
2022/06/29 03:15:25;;;;;;;5.27;4.00;;;;;16.40;101012.00;;;;4947572;28;20235;-67
2022/06/29 03:18:11;;;;;;;5.00;4.03;;;;;16.30;101020.00;;;;4941949;28;20324;-66
2022/06/29 03:20:59;;;;;;;4.70;4.07;;;;;16.40;101018.00;;;;4946619;28;20806;-66
2022/06/29 03:23:45;;;;;;;5.10;4.17;;;;;16.40;101008.00;;;;4944072;28;20224;-66
2022/06/29 03:26:32;;;;;;;4.90;4.40;;;;;16.60;101013.00;;;;4946512;28;22175;-68
2022/06/29 03:29:18;;;;;;;5.23;4.30;;;;;16.50;101024.00;;;;4942114;28;20369;-69
2022/06/29 03:32:05;;;;;;;5.03;4.53;;;;;16.60;101008.00;;;;4942694;28;20289;-68
2022/06/29 03:34:51;;;;;;;5.87;4.20;;;;;16.50;101016.00;;;;4943529;28;20246;-67
2022/06/29 03:37:38;;;;;;;3.67;3.33;;;;;16.60;101018.00;;;;4944016;28;20355;-66
2022/06/29 03:40:25;;;;;;;4.27;3.87;;;;;16.50;101009.00;;;;4942428;28;20703;-68
2022/06/29 03:43:12;;;;;;;5.03;3.80;;;;;16.50;101014.00;;;;4942082;28;20263;-67
2022/06/29 03:45:58;;;;;;;4.30;3.90;;;;;16.50;101014.00;;;;4941290;28;20290;-67
2022/06/29 03:48:44;;;;;;;4.40;4.00;;;;;16.60;101009.00;;;;4945320;28;20287;-67
2022/06/29 03:51:30;;;;;;;4.63;3.97;;;;;16.60;101003.00;;;;4946896;28;20870;-65
2022/06/29 03:54:18;;;;;;;4.03;3.67;;;;;16.70;100996.00;;;;4941277;28;20257;-68
2022/06/29 03:57:05;;;;;;;5.07;3.37;;;;;16.60;100998.00;;;;4942049;28;20239;-67
2022/06/29 03:59:51;;;;;;;4.23;3.83;;;;;16.50;100997.00;;;;4938593;28;20239;-67
2022/06/29 04:02:37;;;;;;;4.07;3.47;;;;;16.50;100989.00;;;;4939980;28;20715;-68
2022/06/29 04:05:23;;;;;;;6.87;2.97;;;;;16.40;100991.00;;;;4940801;28;20262;-68
2022/06/29 04:08:10;;;;;;;3.90;3.17;;;;;16.40;100988.00;;;;4938625;28;20238;-67
2022/06/29 04:10:58;;;;;;;3.67;3.27;;;;;16.40;100987.00;;;;4942405;28;20223;-68
2022/06/29 04:13:45;;;;;;;3.83;3.50;;;;;16.30;100984.00;;;;4942048;28;20239;-67
2022/06/29 04:16:31;;;;;;;4.87;3.57;;;;;16.40;100983.00;;;;4938758;28;20239;-68
2022/06/29 04:19:17;;;;;;;5.73;3.63;;;;;16.40;100983.00;;;;4940713;28;20293;-68
2022/06/29 04:22:04;;;;;;;5.47;4.00;;;;;16.50;100983.00;;;;4945383;28;20766;-68
2022/06/29 04:24:51;;;;;;;6.70;4.07;;;;;16.60;100974.00;;;;4944585;28;20236;-68
2022/06/29 04:27:38;;;;;;;4.70;3.80;;;;;16.70;100967.00;;;;4942385;28;20243;-68
2022/06/29 04:30:24;;;;;;;6.07;4.30;;;;;16.90;100973.00;;;;4943411;28;20459;-67
2022/06/29 04:33:11;;;;;;;4.97;4.10;;;;;16.90;100957.00;;;;4942354;28;20244;-67
2022/06/29 04:35:57;;;;;;;5.37;4.03;;;;;17.10;100963.00;;;;4940525;28;20242;-68
2022/06/29 04:38:44;;;;;;;4.40;4.00;;;;;17.00;100973.00;;;;4942122;28;20350;-67
2022/06/29 04:41:30;;;;;;;5.50;4.33;;;;;17.10;100965.00;;;;4946520;28;20238;-67
2022/06/29 04:44:17;;;;;;;5.23;4.73;;;;;17.10;100967.00;;;;4937998;28;20245;-67
2022/06/29 04:47:04;;;;;;;4.60;3.90;;;;;17.10;100955.00;;;;4942639;28;20240;-68
2022/06/29 04:49:50;;;;;;;4.73;4.20;;;;;17.20;100965.00;;;;4944771;28;20259;-67
2022/06/29 04:52:36;;;;;;;4.53;3.80;;;;;17.20;100964.00;;;;4944011;28;20308;-67
2022/06/29 04:55:25;;;;;;;4.77;4.20;;;;;17.20;100964.00;;;;4948459;28;20236;-65
2022/06/29 04:58:11;;;;;;;5.67;4.13;;;;;17.20;100967.00;;;;4943922;28;20243;-67
2022/06/29 05:00:59;;;;;;;6.30;4.33;;;;;17.20;100965.00;;;;4935572;28;20227;-67
2022/06/29 05:03:45;;;;;;;10.83;4.77;;;;;17.20;100969.00;;;;4944489;28;20224;-66
2022/06/29 05:06:32;;;;;;;5.10;4.27;;;;;17.20;100962.00;;;;4945658;28;20797;-67
2022/06/29 05:09:18;;;;;;;5.53;4.20;;;;;17.20;100964.00;;;;4947025;28;20239;-67
2022/06/29 05:12:07;;;;;;;4.40;4.00;;;;;17.20;100956.00;;;;4944071;28;20241;-67
2022/06/29 05:14:53;;;;;;;6.07;4.00;;;;;17.30;100952.00;;;;4947027;28;20321;-66
2022/06/29 05:17:41;;;;;;;5.67;4.43;;;;;17.20;100960.00;;;;4947458;28;20307;-67
2022/06/29 05:20:27;;;;;;;5.27;4.20;;;;;17.20;100964.00;;;;4944513;28;20360;-68
2022/06/29 05:23:14;;;;;;;4.20;3.80;;;;;17.30;100954.00;;;;4940287;28;20243;-68
2022/06/29 05:26:00;;;;;;;4.57;3.87;;;;;17.40;100960.00;;;;4948710;28;20319;-68
2022/06/29 05:28:47;;;;;;;5.43;4.33;;;;;17.40;100956.00;;;;4946332;28;20666;-67
2022/06/29 05:31:34;;;;;;;5.40;4.20;;;;;17.40;100958.00;;;;4949254;28;20710;-66
2022/06/29 05:34:21;;;;;;;6.37;4.23;;;;;17.50;100955.00;;;;4947616;28;20767;-68
2022/06/29 05:37:08;;;;;;;7.50;5.27;;;;;17.60;100962.00;;;;4948709;28;20244;-67
2022/06/29 05:39:54;;;;;;;6.73;5.47;;;;;17.70;100953.00;;;;4948566;28;20252;-68
2022/06/29 05:42:41;;;;;;;4.73;4.23;;;;;17.90;100952.00;;;;4946969;28;20263;-68
2022/06/29 05:45:27;;;;;;;7.53;4.30;;;;;18.00;100954.00;;;;4942373;28;20369;-65
2022/06/29 05:48:14;;;;;;;6.37;3.90;;;;;18.10;100955.00;;;;4948443;28;20244;-67
2022/06/29 05:51:02;;;;;;;4.90;3.83;;;;;18.20;100940.00;;;;4935250;28;20880;-66
2022/06/29 05:53:49;;;;;;;4.47;3.83;;;;;18.30;100953.00;;;;4943776;28;20247;-67
2022/06/29 05:56:35;;;;;;;4.67;4.10;;;;;18.20;100946.00;;;;4947186;28;20243;-67
2022/06/29 05:59:22;;;;;;;4.97;3.80;;;;;18.10;100951.00;;;;4943102;28;20240;-68
2022/06/29 06:02:08;;;;;;;4.57;3.97;;;;;18.10;100953.00;;;;4943352;28;20979;-67
2022/06/29 06:04:54;;;;;;;6.40;4.03;;;;;18.10;100956.00;;;;4939680;28;20232;-67
2022/06/29 06:07:42;;;;;;;4.37;3.93;;;;;18.40;100950.00;;;;4935093;28;20785;-66
2022/06/29 06:10:28;;;;;;;5.30;4.23;;;;;18.40;100950.00;;;;4949223;28;20234;-67
2022/06/29 06:13:14;;;;;;;4.27;3.80;;;;;18.30;100946.00;;;;4944664;28;20284;-65
2022/06/29 06:16:01;;;;;;;6.57;4.00;;;;;18.40;100948.00;;;;4943301;28;20244;-65
2022/06/29 06:19:07;;;;;;;4.23;3.80;;;;;18.50;100952.00;;;;4944379;28;20328;-65
2022/06/29 06:21:53;;;;;;;5.43;3.67;;;;;18.60;100944.00;;;;4942366;28;20248;-66
2022/06/29 06:24:41;;;;;;;4.90;3.40;;;;;18.80;100938.00;;;;4943618;28;20236;-66
2022/06/29 06:27:27;;;;;;;3.30;3.00;;;;;19.00;100941.00;;;;4945626;28;20227;-63
2022/06/29 06:30:14;;;;;;;5.27;3.40;;;;;19.10;100939.00;;;;4941122;28;20312;-66
2022/06/29 06:33:00;;;;;;;3.30;3.00;;;;;19.20;100936.00;;;;4936808;28;20244;-66
2022/06/29 06:35:46;;;;;;;5.70;3.10;;;;;19.30;100929.00;;;;4941167;28;20244;-66
2022/06/29 06:38:33;;;;;;;3.57;3.00;;;;;19.40;100922.00;;;;4943081;28;20284;-65
2022/06/29 06:41:25;;;;;;;3.00;2.70;;;;;19.50;100923.00;;;;4939508;28;20236;-65
2022/06/29 06:44:11;;;;;;;3.47;2.70;;;;;19.50;100932.00;;;;4938725;28;20244;-65
2022/06/29 06:46:57;;;;;;;4.97;2.73;;;;;19.60;100930.00;;;;4945699;28;20756;-67
2022/06/29 06:49:43;;;;;;;4.87;2.70;;;;;19.70;100924.00;;;;4948489;28;20372;-68
2022/06/29 06:52:30;;;;;;;3.37;2.80;;;;;19.80;100929.00;;;;4947466;28;20235;-69
2022/06/29 06:55:16;;;;;;;4.80;2.90;;;;;19.90;100933.00;;;;4937767;28;20244;-65
2022/06/29 06:58:05;;;;;;;5.27;3.10;;;;;20.10;100937.00;;;;4939996;28;20231;-66
2022/06/29 07:00:51;;;;;;;3.67;3.10;;;;;20.40;100944.00;;;;4943192;28;20240;-66
2022/06/29 07:03:38;;;;;;;3.60;2.90;;;;;20.70;100940.00;;;;4937559;28;20236;-65
2022/06/29 07:06:25;;;;;;;2.77;2.53;;;;;21.00;100945.00;;;;4943102;28;20335;-67
2022/06/29 07:09:12;;;;;;;3.23;2.40;;;;;21.20;100930.00;;;;4944020;28;20235;-67
2022/06/29 07:11:58;;;;;;;4.00;2.50;;;;;21.50;100925.00;;;;4945041;28;20271;-67
2022/06/29 07:14:45;;;;;;;2.87;2.20;;;;;21.60;100922.00;;;;4941661;28;20243;-68
2022/06/29 07:17:32;;;;;;;3.47;2.50;;;;;21.50;100932.00;;;;4946704;28;20259;-69
2022/06/29 07:20:18;;;;;;;2.57;2.30;;;;;21.60;100924.00;;;;4941210;28;20228;-68
2022/06/29 07:23:04;;;;;;;2.37;2.13;;;;;21.50;100919.00;;;;4940755;28;20296;-67
2022/06/29 07:25:50;;;;;;;2.70;2.20;;;;;21.60;100922.00;;;;4946021;28;20617;-69
2022/06/29 07:28:39;;;;;;;2.87;2.30;;;;;21.70;100925.00;;;;4939243;28;21629;-68
2022/06/29 07:31:26;;;;;;;3.33;2.40;;;;;22.00;100932.00;;;;4946323;28;20785;-68
2022/06/29 07:34:12;;;;;;;3.73;2.50;;;;;22.10;100932.00;;;;4943145;28;20637;-67
2022/06/29 07:36:59;;;;;;;3.93;2.13;;;;;22.10;100916.00;;;;4942698;28;20366;-68
2022/06/29 07:39:45;;;;;;;3.93;2.10;;;;;22.10;100920.00;;;;4941094;28;20233;-68
2022/06/29 07:42:51;;;;;;;4.90;2.27;;;;;22.20;100921.00;;;;4942468;28;20266;-67
2022/06/29 07:45:37;;;;;;;4.13;2.57;;;;;22.40;100924.00;;;;4938974;28;20266;-66
2022/06/29 07:48:25;;;;;;;6.47;2.70;;;;;22.60;100921.00;;;;4941928;28;20230;-67
2022/06/29 07:51:12;;;;;;;5.50;3.73;;;;;22.70;100925.00;;;;4941572;28;20331;-69
2022/06/29 07:53:58;;;;;;;3.87;2.20;;;;;22.60;100920.00;;;;4938731;28;20314;-67
2022/06/29 07:56:44;;;;;;;3.60;2.60;;;;;22.70;100927.00;;;;4945281;28;20249;-67
2022/06/29 07:59:50;;;;;;;2.67;2.40;;;;;22.70;100924.00;;;;4936022;28;20226;-67
2022/06/29 08:02:36;;;;;;;2.40;2.20;;;;;22.80;100925.00;;;;4937175;28;20779;-67
2022/06/29 08:05:24;;;;;;;3.40;2.40;;;;;22.80;100926.00;;;;4935086;28;20243;-68
2022/06/29 08:08:10;;;;;;;6.10;2.37;;;;;22.60;100925.00;;;;4941978;28;20549;-65
2022/06/29 08:10:56;;;;;;;2.40;2.20;;;;;22.70;100922.00;;;;4940961;28;20306;-69
2022/06/29 08:13:43;;;;;;;2.37;2.17;;;;;22.50;100938.00;;;;4945247;28;20235;-66
2022/06/29 08:16:29;;;;;;;5.90;2.30;;;;;22.50;100935.00;;;;4942340;28;20397;-67
2022/06/29 08:19:16;;;;;;;4.60;2.43;;;;;22.40;100942.00;;;;4940440;28;20337;-67
2022/06/29 08:22:04;;;;;;;3.00;2.30;;;;;22.30;100951.00;;;;4939698;28;20540;-67
2022/06/29 08:24:50;;;;;;;2.97;2.40;;;;;22.30;100946.00;;;;4945417;28;20806;-67
2022/06/29 08:27:36;;;;;;;6.13;2.77;;;;;22.30;100938.00;;;;4942729;28;20793;-68
2022/06/29 08:30:32;;;;;;;2.70;2.20;;;;;22.20;100942.00;;;;4942433;28;20889;-68
2022/06/29 08:33:21;;;;;;;4.07;2.40;;;;;22.20;100947.00;;;;4945398;28;20239;-67
2022/06/29 08:36:08;;;;;;;2.87;2.20;;;;;22.10;100944.00;;;;4943287;28;20295;-67
2022/06/29 08:38:55;;;;;;;3.27;2.73;;;;;22.30;100945.00;;;;4947102;28;20240;-68
2022/06/29 08:41:42;;;;;;;6.00;2.40;;;;;22.20;100940.00;;;;4946722;28;20283;-67
2022/06/29 08:44:30;;;;;;;4.10;2.40;;;;;22.20;100937.00;;;;4946578;28;20991;-66
2022/06/29 08:47:17;;;;;;;3.67;2.73;;;;;22.20;100939.00;;;;4941885;28;20223;-69
2022/06/29 08:50:04;;;;;;;8.37;3.73;;;;;22.10;100957.00;;;;4950372;28;20228;-67
2022/06/29 08:52:51;;;;;;;7.37;2.90;;;;;22.10;100939.00;;;;4939634;28;20231;-67
2022/06/29 08:55:43;;;;;;;3.93;2.50;;;;;22.10;100942.00;;;;4936773;28;20311;-68
2022/06/29 08:58:31;;;;;;;3.77;2.53;;;;;22.20;100947.00;;;;4936237;28;20235;-67
2022/06/29 09:01:17;;;;;;;4.47;2.40;;;;;22.10;100943.00;;;;4939824;28;20235;-66
2022/06/29 09:04:03;;;;;;;2.77;2.43;;;;;22.00;100949.00;;;;4949526;28;20234;-66
2022/06/29 09:06:54;;;;;;;4.90;2.57;;;;;22.00;100941.00;;;;4948649;28;20234;-66
2022/06/29 09:10:01;;;;;;;5.23;2.60;;;;;22.10;100943.00;;;;4947062;28;20238;-66
2022/06/29 09:12:52;;;;;;;2.70;2.50;;;;;22.00;100951.00;;;;4947930;28;20725;-66
2022/06/29 09:15:39;;;;;;;3.17;2.27;;;;;22.00;100944.00;;;;4942158;28;20235;-66
2022/06/29 09:18:27;;;;;;;4.57;2.37;;;;;22.00;100948.00;;;;4948645;28;20225;-65
2022/06/29 09:21:13;;;;;;;2.47;2.10;;;;;22.10;100944.00;;;;4941912;28;20590;-66
2022/06/29 09:23:59;;;;;;;2.30;2.10;;;;;22.10;100946.00;;;;4937859;28;20296;-67
2022/06/29 09:26:58;;;;;;;2.47;2.23;;;;;22.10;100951.00;;;;4941410;28;20223;-66
2022/06/29 09:29:46;;;;;;;3.00;2.23;;;;;22.10;100951.00;;;;4946375;28;20231;-67
2022/06/29 09:32:32;;;;;;;3.60;2.40;;;;;22.10;100950.00;;;;4944720;28;20230;-64
2022/06/29 09:35:19;;;;;;;8.70;5.00;;;;;22.10;100946.00;;;;4943076;28;20997;-66
2022/06/29 09:38:19;;;;;;;3.13;2.43;;;;;22.10;100950.00;;;;4940952;28;20297;-70
2022/06/29 09:41:07;;;;;;;3.50;2.30;;;;;22.20;100958.00;;;;4941493;28;20365;-65
2022/06/29 09:43:54;;;;;;;2.30;2.10;;;;;22.20;100959.00;;;;4947081;28;20767;-65
2022/06/29 09:46:46;;;;;;;2.60;2.40;;;;;22.20;100953.00;;;;4947625;28;20231;-67
2022/06/29 09:49:34;;;;;;;4.93;2.57;;;;;22.20;100966.00;;;;4949046;28;20718;-65
2022/06/29 09:52:22;;;;;;;2.67;2.47;;;;;22.30;100953.00;;;;4943794;28;20313;-67
2022/06/29 09:55:10;;;;;;;3.47;2.40;;;;;22.30;100964.00;;;;4946581;28;20608;-66
2022/06/29 09:57:58;;;;;;;3.10;2.30;;;;;22.40;100955.00;;;;4948888;28;20237;-66
2022/06/29 10:03:50;;;;;;;2.20;2.00;;;;;22.40;100957.00;;;;4943249;28;20231;-66
2022/06/29 10:06:37;;;;;;;3.23;2.60;;;;;22.50;100963.00;;;;4943740;28;20379;-64
2022/06/29 10:09:24;;;;;;;2.47;2.27;;;;;22.60;100967.00;;;;4943359;28;20295;-67
2022/06/29 10:15:27;;;;;;;3.93;2.07;;;;;22.70;100950.00;;;;4945608;28;20251;-67
2022/06/29 10:18:24;;;;;;;2.20;2.00;;;;;22.70;100949.00;;;;4938509;28;20956;-67
2022/06/29 10:21:19;;;;;;;2.77;2.30;;;;;22.60;100946.00;;;;4942349;28;20747;-66
2022/06/29 10:24:05;;;;;;;2.70;2.27;;;;;22.70;100947.00;;;;4943659;28;20236;-69
2022/06/29 10:26:51;;;;;;;6.67;2.30;;;;;22.90;100943.00;;;;4947023;28;20779;-63
2022/06/29 10:29:38;;;;;;;4.30;2.30;;;;;23.30;100929.00;;;;4939835;28;20236;-69
2022/06/29 10:32:24;;;;;;;3.83;2.43;;;;;23.60;100924.00;;;;4941397;28;20747;-69
2022/06/29 10:35:11;;;;;;;3.20;2.47;;;;;24.00;100923.00;;;;4946805;28;20247;-66
2022/06/29 10:37:58;;;;;;;2.83;2.50;;;;;24.20;100924.00;;;;4941289;28;20235;-68
2022/06/29 10:41:09;;;;;;;3.87;3.00;;;;;24.40;100931.00;;;;4944647;28;20300;-64
2022/06/29 10:43:54;;;;;;;2.70;2.30;;;;;24.40;100931.00;;;;4939443;28;20303;-64
2022/06/29 10:46:57;;;;;;;2.53;2.33;;;;;24.40;100927.00;;;;4943047;28;20240;-65
2022/06/29 10:49:43;;;;;;;7.90;4.30;;;;;24.30;100928.00;;;;4945732;28;20636;-67
2022/06/29 10:52:29;;;;;;;4.83;2.90;;;;;24.40;100934.00;;;;4943756;28;20239;-64
2022/06/29 10:55:18;;;;;;;3.67;2.20;;;;;24.30;100924.00;;;;4944611;28;20236;-67
2022/06/29 10:58:06;;;;;;;2.97;2.40;;;;;24.30;100920.00;;;;4947519;28;20235;-67
2022/06/29 11:00:53;;;;;;;3.13;2.10;;;;;24.10;100914.00;;;;4945351;28;20303;-64
2022/06/29 11:03:40;;;;;;;2.87;2.23;;;;;24.10;100907.00;;;;4945331;28;20252;-66
2022/06/29 11:12:51;;;;;;;2.70;2.30;;;;;24.00;100908.00;;;;4946096;28;20240;-68
2022/06/29 11:15:41;;;;;;;6.20;2.50;;;;;24.20;100909.00;;;;4946850;28;20264;-68
2022/06/29 11:18:29;;;;;;;4.57;2.40;;;;;24.30;100920.00;;;;4942653;28;20228;-67
2022/06/29 11:21:15;;;;;;;2.50;2.30;;;;;24.30;100925.00;;;;4946811;28;20773;-65
2022/06/29 11:24:06;;;;;;;3.03;2.23;;;;;24.40;100916.00;;;;4938974;28;20247;-67
2022/06/29 11:26:52;;;;;;;3.53;2.60;;;;;24.30;100913.00;;;;4946381;28;20619;-68
2022/06/29 11:29:43;;;;;;;4.20;2.27;;;;;24.50;100919.00;;;;4946753;28;20740;-66
2022/06/29 11:32:41;;;;;;;2.77;2.20;;;;;24.80;100916.00;;;;4938436;28;20254;-69
2022/06/29 11:35:27;;;;;;;3.37;2.30;;;;;24.90;100908.00;;;;4936575;28;20239;-68
2022/06/29 11:38:18;;;;;;;2.63;2.23;;;;;25.10;100913.00;;;;4937737;28;20240;-67
2022/06/29 11:41:11;;;;;;;4.00;2.50;;;;;25.10;100916.00;;;;4946180;28;20255;-68
2022/06/29 11:44:24;;;;;;;2.27;2.03;;;;;25.10;100909.00;;;;4938863;28;20983;-68
2022/06/29 11:47:12;;;;;;;3.53;2.47;;;;;25.10;100905.00;;;;4935521;28;20232;-68
2022/06/29 11:49:58;;;;;;;3.77;2.60;;;;;25.30;100896.00;;;;4937710;28;20336;-67
2022/06/29 11:52:47;;;;;;;3.10;2.37;;;;;25.40;100896.00;;;;4945633;28;20772;-67
2022/06/29 11:55:41;;;;;;;3.07;2.50;;;;;25.70;100888.00;;;;4930454;28;20714;-67
2022/06/29 11:58:27;;;;;;;3.93;2.30;;;;;25.80;100875.00;;;;4942742;28;20272;-63
2022/06/29 12:01:15;;;;;;;3.53;2.47;;;;;26.00;100887.00;;;;4944390;28;20603;-66
2022/06/29 12:04:04;;;;;;;6.70;2.57;;;;;26.40;100873.00;;;;4932259;28;20240;-67
2022/06/29 12:06:50;;;;;;;3.87;2.80;;;;;26.80;100881.00;;;;4945178;28;20240;-67
2022/06/29 12:09:38;;;;;;;4.70;2.53;;;;;26.80;100875.00;;;;4942718;28;20228;-67
2022/06/29 12:12:24;;;;;;;8.37;2.30;;;;;26.60;100870.00;;;;4944580;28;20774;-67
2022/06/29 12:15:11;;;;;;;3.53;2.60;;;;;26.70;100876.00;;;;4938373;28;20275;-66
2022/06/29 12:17:57;;;;;;;3.07;2.53;;;;;26.60;100876.00;;;;4945138;28;20235;-69
2022/06/29 12:20:45;;;;;;;6.63;2.50;;;;;26.60;100872.00;;;;4938677;28;20232;-67
2022/06/29 12:23:31;;;;;;;4.47;2.53;;;;;27.00;100869.00;;;;4941064;28;20293;-66
2022/06/29 12:26:17;;;;;;;3.77;2.47;;;;;27.40;100876.00;;;;4938886;28;20239;-67
2022/06/29 12:29:04;;;;;;;3.07;2.77;;;;;27.40;100877.00;;;;4936473;28;20233;-67
2022/06/29 12:31:51;;;;;;;3.13;2.63;;;;;27.10;100877.00;;;;4944236;28;20236;-67
2022/06/29 12:34:37;;;;;;;4.47;2.75;;;;;27.10;100869.00;;;;4938745;28;20837;-67
2022/06/29 12:37:25;;;;;;;2.33;2.10;;;;;27.00;100866.00;;;;4943108;28;20257;-67
2022/06/29 12:40:12;;;;;;;2.20;2.00;;;;;27.10;100866.00;;;;4940897;28;21007;-67
2022/06/29 12:42:59;;;;;;;4.33;2.03;;;;;27.00;100861.00;;;;4929634;29;20235;-67
2022/06/29 12:45:46;;;;;;;3.67;2.35;;;;;27.00;100855.00;;;;4929781;28;20252;-69
2022/06/29 12:48:33;;;;;;;2.60;2.40;;;;;27.00;100854.00;;;;4930444;29;20312;-65
2022/06/29 12:51:19;;;;;;;4.25;3.10;;;;;27.10;100857.00;;;;4928907;29;20236;-70
2022/06/29 12:54:07;;;;;;;3.92;2.40;;;;;27.10;100858.00;;;;4931527;28;20324;-66
2022/06/29 12:56:54;;;;;;;2.80;2.60;;;;;27.30;100858.00;;;;4932229;29;20232;-67
2022/06/29 12:59:40;;;;;;;5.03;2.83;;;;;27.40;100867.00;;;;4935981;28;20261;-69
2022/06/29 13:02:27;;;;;;;3.42;2.20;;;;;27.50;100859.00;;;;4928484;29;20286;-68
2022/06/29 13:05:13;;;;;;;3.53;2.20;;;;;27.50;100856.00;;;;4930015;29;20746;-69
2022/06/29 13:08:00;;;;;;;3.15;2.30;;;;;27.50;100865.00;;;;4932077;28;20236;-68
2022/06/29 13:10:48;;;;;;;7.25;2.70;;;;;27.10;100854.00;;;;4933914;28;20346;-70
2022/06/29 13:13:34;;;;;;;4.72;2.40;;;;;26.90;100853.00;;;;4930183;29;20772;-69
2022/06/29 13:16:20;;;;;;;3.67;2.33;;;;;26.60;100855.00;;;;4934699;28;20236;-68
2022/06/29 13:19:07;;;;;;;4.10;2.47;;;;;26.50;100838.00;;;;4933790;28;20319;-68
2022/06/29 13:21:53;;;;;;;3.75;2.60;;;;;26.50;100843.00;;;;4949070;28;20299;-67
2022/06/29 13:24:40;;;;;;;5.20;2.63;;;;;26.50;100837.00;;;;4942185;28;20240;-70
2022/06/29 13:27:27;;;;;;;3.97;2.30;;;;;26.50;100844.00;;;;4943347;28;20739;-66
2022/06/29 13:30:14;;;;;;;2.57;2.37;;;;;26.50;100833.00;;;;4943667;28;20232;-68
2022/06/29 13:33:01;;;;;;;2.60;2.17;;;;;26.40;100839.00;;;;4947906;28;20239;-67
2022/06/29 13:35:48;;;;;;;2.90;2.17;;;;;26.30;100832.00;;;;4944296;28;20251;-72
2022/06/29 13:38:34;;;;;;;5.17;2.30;;;;;26.30;100833.00;;;;4944108;28;20737;-68
2022/06/29 13:41:21;;;;;;;2.65;2.05;;;;;26.50;100831.00;;;;4946197;28;20231;-69
2022/06/29 13:44:09;;;;;;;3.75;2.15;;;;;26.70;100826.00;;;;4948126;28;20228;-70
2022/06/29 13:46:55;;;;;;;3.00;2.20;;;;;26.80;100832.00;;;;4943729;28;20707;-69
2022/06/29 13:49:42;;;;;;;2.40;2.20;;;;;26.60;100835.00;;;;4945878;28;20248;-72
2022/06/29 13:52:28;;;;;;;2.30;2.10;;;;;26.40;100837.00;;;;4948460;28;20257;-69
2022/06/29 13:55:15;;;;;;;2.60;2.40;;;;;26.30;100833.00;;;;4945253;28;20805;-70
2022/06/29 13:58:02;;;;;;;3.25;2.35;;;;;26.10;100826.00;;;;4947343;28;20323;-72
2022/06/29 14:00:50;;;;;;;4.37;2.20;;;;;26.10;100826.00;;;;4948112;28;20236;-71
2022/06/29 14:03:36;;;;;;;4.18;2.30;;;;;26.20;100829.00;;;;4941038;28;20600;-71
2022/06/29 14:06:23;;;;;;;3.20;2.70;;;;;26.60;100835.00;;;;4946968;28;20283;-67
2022/06/29 14:09:10;;;;;;;4.43;2.27;;;;;27.30;100821.00;;;;4943414;28;20232;-69
2022/06/29 14:11:58;;;;;;;7.03;2.53;;;;;27.80;100817.00;;;;4940037;28;20361;-67